VAM | Vabird-VBD

Virtual Vabird! Aerolínea Virtual de habla hispana, desde 2011




 INFORMACIÓN METAR y TAF
METAR FOR ENTC
ADDS - METARS form results

(1622 UTC 08 March 2021)
Data provider http://aviationweather.gov/metar/data/
 
METAR text: ENTC 081620Z 08003KT CAVOK M05/M09 Q1013 NOSIG RMK WIND 2600FT 11007KT
Conditions at: ENTC (TROMSO/LANGNES , NO) observed 1620 UTC 08 March 2021
Temperature: -5.0°C (23°F)
Dewpoint: -9.0°C (16°F) [RH = 73%]
Pressure (altimeter): 29.91 inches Hg (1013.0 mb)
Winds: from the E (80 degrees) at 3 MPH (3 knots; 1.5 m/s)
Visibility: 6 or more miles (10+ km)
Ceiling: ceiling and visibility are OK
Clouds: unknown
Weather: no significant weather observed at this time

METAR text: ENTC 081550Z 04002KT CAVOK M04/M09 Q1013 NOSIG RMK WIND 2600FT 11010KT
Conditions at: ENTC (TROMSO/LANGNES , NO) observed 1550 UTC 08 March 2021
Temperature: -4.0°C (25°F)
Dewpoint: -9.0°C (16°F) [RH = 68%]
Pressure (altimeter): 29.91 inches Hg (1013.0 mb)
Winds: from the NE (40 degrees) at 2 MPH (2 knots; 1.0 m/s)
Visibility: 6 or more miles (10+ km)
Ceiling: ceiling and visibility are OK
Clouds: unknown
Weather: no significant weather observed at this time

Forecast for: ENTC (TROMSO/LANGNES , NO)
Text: TAF ENTC 0812/0912 VRB06KT 9999 FEW020 SCT050
Forecast period: 1200 UTC 08 March 2021 to 1200 UTC 09 March 2021
Forecast type: FROM: standard forecast or significant change
Winds: variable direction winds at 7 MPH (6 knots; 3.1 m/s)
Visibility: 6 or more miles (10+ km)
Ceiling: at least 12,000 feet AGL
Clouds: few clouds at 2000 feet AGL
scattered clouds at 5000 feet AGL
Weather: no significant weather forecast for this period

 MAPA DE AEROPUERTO

 INFORMACIÓN DE PISTA